Beaumont, Kansas
Current Conditions -  °F | °C
As of 8:35 AM on Sunday 23 Nov 2014 (Local Time) from KEQA Reporting Station
Overcast Overcast  
Wind Chill: 57°   Ceiling: 1200
Heat Index: 57°   Visibility: 10mi
Dew Point: 52°   Wind: 9mph
Humidity: 82%   Direction: 190°S
Pressure: 29.46"   Gusts: NA
Location:  37.66°N, 96.53°W
Report Text: KEQA 231435Z AUTO 19008KT 10SM BKN012 OVC018 14/11 A2946 RMK AO2
Loading
Personal Weather Stations






























Interactive Weather Map New forecast layout! Learn more

10-Day Weather Forecast

Advertisements
Track Severe Weather on mobile